createdAt,value
2022-09-14T00:01:26.326Z,98483.91
2022-09-14T00:04:00.981Z,98481.22
2022-09-14T00:06:29.268Z,98468.63
2022-09-14T00:08:58.600Z,98468.38
2022-09-14T00:11:27.716Z,98466.22
2022-09-14T00:13:56.518Z,98465.47
2022-09-14T00:18:58.375Z,98465.06
2022-09-14T00:21:25.813Z,98462.16
2022-09-14T00:23:53.420Z,98460.69
2022-09-14T00:26:22.979Z,98461.44
2022-09-14T00:28:52.533Z,98465.34
2022-09-14T00:31:20.458Z,98461.19
2022-09-14T00:33:48.871Z,98455.91
2022-09-14T00:36:21.642Z,98458.06
2022-09-14T00:38:49.060Z,98452.72
2022-09-14T00:41:22.241Z,98452.41
2022-09-14T00:44:13.010Z,98454.59
2022-09-14T00:46:53.360Z,98450.41
2022-09-14T00:49:39.770Z,98450.28
2022-09-14T00:52:20.759Z,98449.81
2022-09-14T00:54:57.605Z,98456.59
2022-09-14T00:57:28.125Z,98451.03
2022-09-14T00:59:56.444Z,98452.25
2022-09-14T01:02:26.129Z,98456.41
2022-09-14T01:04:53.524Z,98442.53
2022-09-14T01:07:44.458Z,98438.91
2022-09-14T01:10:48.941Z,98438.50
2022-09-14T01:13:31.013Z,98436.09
2022-09-14T01:16:18.401Z,98429.03
2022-09-14T01:18:48.396Z,98421.47
2022-09-14T01:21:21.836Z,98438.56
2022-09-14T01:24:23.033Z,98438.78
2022-09-14T01:27:08.112Z,98438.78
2022-09-14T01:30:01.162Z,98423.88
2022-09-14T01:32:33.159Z,98431.53
2022-09-14T01:35:23.871Z,98426.66
2022-09-14T01:38:12.083Z,98422.50
2022-09-14T01:40:43.003Z,98421.78
2022-09-14T01:43:12.646Z,98416.41
2022-09-14T01:45:44.398Z,98416.19
2022-09-14T01:48:13.717Z,98414.25
2022-09-14T01:50:45.328Z,98408.13
2022-09-14T01:53:30.177Z,98408.34
2022-09-14T01:56:15.636Z,98417.84
2022-09-14T01:58:50.815Z,98392.00
2022-09-14T02:01:25.236Z,98395.44
2022-09-14T02:04:03.010Z,98393.50
2022-09-14T02:06:38.272Z,98388.13
2022-09-14T02:09:08.552Z,98373.00
2022-09-14T02:11:35.917Z,98378.16
2022-09-14T02:14:03.313Z,98371.56
2022-09-14T02:16:31.137Z,98372.31
2022-09-14T02:19:01.871Z,98364.72
2022-09-14T02:21:32.522Z,98355.94
2022-09-14T02:24:00.663Z,98363.28
2022-09-14T02:26:28.740Z,98362.56
2022-09-14T02:28:57.129Z,98365.78
2022-09-14T02:31:39.184Z,98364.53
2022-09-14T02:34:40.039Z,98352.53
2022-09-14T02:37:31.127Z,98347.88
2022-09-14T02:40:05.693Z,98352.53
2022-09-14T02:42:37.504Z,98348.41
2022-09-14T02:45:22.275Z,98345.50
2022-09-14T02:48:12.542Z,98347.44
2022-09-14T02:50:55.485Z,98333.81
2022-09-14T02:53:40.451Z,98341.38
2022-09-14T02:56:10.466Z,98342.81
2022-09-14T02:58:40.724Z,98343.56
2022-09-14T03:01:09.991Z,98342.81
2022-09-14T03:03:37.444Z,98342.81
2022-09-14T03:06:04.691Z,98349.66
2022-09-14T03:08:32.725Z,98349.34
2022-09-14T03:10:59.844Z,98342.44
2022-09-14T03:13:27.177Z,98349.50
2022-09-14T03:15:54.329Z,98342.44
2022-09-14T03:18:21.403Z,98347.59
2022-09-14T03:20:48.535Z,98336.84
2022-09-14T03:23:15.806Z,98349.50
2022-09-14T03:25:44.824Z,98346.00
2022-09-14T03:28:13.227Z,98347.16
2022-09-14T03:30:40.342Z,98347.84
2022-09-14T03:33:07.485Z,98350.03
2022-09-14T03:35:35.338Z,98349.53
2022-09-14T03:38:03.566Z,98344.34
2022-09-14T03:40:31.248Z,98340.13
2022-09-14T03:42:58.923Z,98335.50
2022-09-14T03:45:26.095Z,98337.63
2022-09-14T03:47:53.114Z,98344.47
2022-09-14T03:50:21.627Z,98342.53
2022-09-14T03:52:49.057Z,98343.00
2022-09-14T03:55:16.619Z,98340.44
2022-09-14T03:57:43.772Z,98343.41
2022-09-14T04:00:11.902Z,98349.84
2022-09-14T04:02:39.922Z,98356.66
2022-09-14T04:05:08.000Z,98354.28
2022-09-14T04:07:35.776Z,98355.28
2022-09-14T04:10:03.178Z,98350.94
2022-09-14T04:12:35.156Z,98354.63
2022-09-14T04:15:02.341Z,98355.66
2022-09-14T04:17:30.125Z,98346.84
2022-09-14T04:19:57.244Z,98349.16
2022-09-14T04:22:24.356Z,98350.13
2022-09-14T04:24:51.580Z,98344.88
2022-09-14T04:27:18.688Z,98349.78
2022-09-14T04:29:45.947Z,98349.34
2022-09-14T04:32:13.682Z,98346.28
2022-09-14T04:34:40.726Z,98363.59
2022-09-14T04:37:07.789Z,98362.16
2022-09-14T04:39:34.873Z,98346.31
2022-09-14T04:42:01.979Z,98353.44
2022-09-14T04:44:29.179Z,98344.69
2022-09-14T04:46:56.300Z,98346.63
2022-09-14T04:49:23.417Z,98346.19
2022-09-14T04:51:50.752Z,98336.47
2022-09-14T04:54:18.828Z,98339.69
2022-09-14T04:56:46.281Z,98347.00
2022-09-14T04:59:13.584Z,98341.63
2022-09-14T05:01:46.081Z,98345.53
2022-09-14T05:04:13.369Z,98338.50
2022-09-14T05:06:42.488Z,98342.41
2022-09-14T05:09:15.420Z,98346.84
2022-09-14T05:11:42.971Z,98346.63
2022-09-14T05:14:13.388Z,98343.00
2022-09-14T05:16:42.602Z,98341.53
2022-09-14T05:19:13.651Z,98345.47
2022-09-14T05:21:40.736Z,98345.47
2022-09-14T05:24:13.216Z,98343.00
2022-09-14T05:26:40.369Z,98355.19
2022-09-14T05:29:07.523Z,98347.56
2022-09-14T05:31:35.044Z,98358.53
2022-09-14T05:34:02.210Z,98359.97
2022-09-14T05:36:29.420Z,98358.94
2022-09-14T05:38:58.286Z,98355.06
2022-09-14T05:41:25.396Z,98364.13
2022-09-14T05:43:52.480Z,98367.75
2022-09-14T05:46:22.825Z,98371.16
2022-09-14T05:48:52.029Z,98380.44
2022-09-14T05:51:24.310Z,98376.53
2022-09-14T05:53:53.082Z,98388.69
2022-09-14T05:56:21.459Z,98386.97
2022-09-14T05:58:49.408Z,98392.31
2022-09-14T06:01:22.833Z,98397.47
2022-09-14T06:03:50.867Z,98396.25
2022-09-14T06:06:19.563Z,98396.72
2022-09-14T06:08:50.542Z,98390.97
2022-09-14T06:11:20.029Z,98397.53
2022-09-14T06:13:47.588Z,98395.16
2022-09-14T06:16:17.655Z,98405.66
2022-09-14T06:18:46.145Z,98408.41
2022-09-14T06:21:18.090Z,98414.56
2022-09-14T06:23:46.133Z,98411.66
2022-09-14T06:26:13.826Z,98411.44
2022-09-14T06:28:41.604Z,98413.16
2022-09-14T06:31:11.885Z,98414.41
2022-09-14T06:33:39.019Z,98415.13
2022-09-14T06:36:12.930Z,98424.63
2022-09-14T06:38:41.320Z,98436.81
2022-09-14T06:41:10.331Z,98438.72
2022-09-14T06:43:39.444Z,98442.34
2022-09-14T06:46:12.631Z,98440.59
2022-09-14T06:48:47.433Z,98448.19
2022-09-14T06:51:24.102Z,98456.66
2022-09-14T06:53:52.263Z,98458.81
2022-09-14T06:56:19.835Z,98462.97
2022-09-14T06:58:47.068Z,98462.44
2022-09-14T07:01:16.303Z,98470.94
2022-09-14T07:03:44.990Z,98469.19
2022-09-14T07:06:15.422Z,98475.03
2022-09-14T07:08:43.627Z,98475.97
2022-09-14T07:11:12.440Z,98474.00
2022-09-14T07:13:40.090Z,98469.38
2022-09-14T07:16:08.506Z,98482.06
2022-09-14T07:18:36.625Z,98482.28
2022-09-14T07:21:08.000Z,98477.41
2022-09-14T07:23:37.200Z,98475.66
2022-09-14T07:26:06.192Z,98471.00
2022-09-14T07:28:33.998Z,98471.44
2022-09-14T07:31:02.198Z,98476.00
2022-09-14T07:33:30.242Z,98486.97
2022-09-14T07:36:11.990Z,98485.22
2022-09-14T07:38:55.087Z,98482.06
2022-09-14T07:41:24.955Z,98487.09
2022-09-14T07:43:53.892Z,98480.75
2022-09-14T07:46:22.120Z,98489.75
2022-09-14T07:48:54.563Z,98484.38
2022-09-14T07:51:22.471Z,98485.13
2022-09-14T07:53:49.548Z,98488.00
2022-09-14T07:56:19.738Z,98486.97
2022-09-14T07:58:48.145Z,98496.00
2022-09-14T08:01:21.296Z,98495.47
2022-09-14T08:03:49.280Z,98502.03
2022-09-14T08:06:29.376Z,98501.00
2022-09-14T08:08:57.173Z,98503.88
2022-09-14T08:14:01.151Z,98499.59
2022-09-14T08:16:30.339Z,98508.31
2022-09-14T08:19:07.286Z,98514.63
2022-09-14T08:21:35.894Z,98506.28
2022-09-14T08:24:04.594Z,98512.81
2022-09-14T08:26:32.132Z,98514.72
2022-09-14T08:29:02.459Z,98513.19
2022-09-14T08:31:29.928Z,98524.56
2022-09-14T08:34:02.979Z,98517.34
2022-09-14T08:36:34.289Z,98516.53
2022-09-14T08:39:02.229Z,98525.25
2022-09-14T08:41:38.370Z,98530.63
2022-09-14T08:44:53.402Z,98520.47
2022-09-14T08:47:37.316Z,98526.59
2022-09-14T08:50:10.009Z,98533.78
2022-09-14T08:52:39.127Z,98546.50
2022-09-14T08:55:30.781Z,98549.63
2022-09-14T08:58:15.969Z,98559.56
2022-09-14T09:00:48.211Z,98565.41
2022-09-14T09:03:31.041Z,98565.78
2022-09-14T09:06:01.373Z,98564.66
2022-09-14T09:09:16.367Z,98561.88
2022-09-14T09:11:47.155Z,98577.56
2022-09-14T09:14:24.378Z,98569.81
2022-09-14T09:16:55.308Z,98569.41
2022-09-14T09:19:29.336Z,98577.00
2022-09-14T09:21:57.724Z,98578.47
2022-09-14T09:24:27.562Z,98585.78
2022-09-14T09:26:54.777Z,98585.28
2022-09-14T09:29:22.375Z,98594.44
2022-09-14T09:31:54.059Z,98597.75
2022-09-14T09:34:29.961Z,98600.56
2022-09-14T09:36:57.363Z,98608.31
2022-09-14T09:39:24.829Z,98609.81
2022-09-14T09:42:06.883Z,98605.81
2022-09-14T09:45:01.290Z,98601.13
2022-09-14T09:47:42.497Z,98606.63
2022-09-14T09:50:21.956Z,98618.94
2022-09-14T09:52:55.113Z,98621.63
2022-09-14T09:55:26.833Z,98624.91
2022-09-14T09:57:55.093Z,98626.81
2022-09-14T10:00:31.102Z,98627.28
2022-09-14T10:02:58.512Z,98625.50
2022-09-14T10:05:32.933Z,98620.88
2022-09-14T10:08:10.734Z,98629.78
2022-09-14T10:10:43.244Z,98630.56
2022-09-14T10:13:30.261Z,98621.44
2022-09-14T10:16:34.626Z,98630.56
2022-09-14T10:19:03.592Z,98630.13
2022-09-14T10:21:31.839Z,98631.03
2022-09-14T10:24:20.494Z,98631.94
2022-09-14T10:26:47.599Z,98639.00
2022-09-14T10:29:29.131Z,98632.47
2022-09-14T10:32:01.634Z,98634.22
2022-09-14T10:34:29.543Z,98637.97
2022-09-14T10:37:51.005Z,98637.25
2022-09-14T10:40:33.426Z,98646.56
2022-09-14T10:43:12.257Z,98644.56
2022-09-14T10:45:53.151Z,98647.53
2022-09-14T10:48:57.695Z,98644.56
2022-09-14T10:51:32.995Z,98653.22
2022-09-14T10:54:33.179Z,98647.03
2022-09-14T10:57:29.005Z,98650.59
2022-09-14T11:00:02.492Z,98652.56
2022-09-14T11:03:11.411Z,98659.09
2022-09-14T11:05:47.980Z,98657.22
2022-09-14T11:08:33.733Z,98654.44
2022-09-14T11:11:12.645Z,98654.19
2022-09-14T11:13:51.747Z,98667.03
2022-09-14T11:16:44.659Z,98661.25
2022-09-14T11:19:26.577Z,98666.25
2022-09-14T11:22:20.849Z,98663.78
2022-09-14T11:24:55.242Z,98666.41
2022-09-14T11:27:41.076Z,98652.16
2022-09-14T11:30:18.998Z,98662.19
2022-09-14T11:33:03.496Z,98662.91
2022-09-14T11:35:43.833Z,98663.09
2022-09-14T11:38:20.536Z,98663.66
2022-09-14T11:41:01.621Z,98666.31
2022-09-14T11:43:37.761Z,98653.72
2022-09-14T11:46:18.032Z,98661.41
2022-09-14T11:49:25.417Z,98667.50
2022-09-14T11:51:54.550Z,98668.88
2022-09-14T11:54:23.818Z,98667.84
2022-09-14T11:56:56.238Z,98669.94
2022-09-14T11:59:34.962Z,98671.19
2022-09-14T12:02:43.281Z,98673.97
2022-09-14T12:05:10.986Z,98665.56
2022-09-14T12:07:47.143Z,98674.47
2022-09-14T12:10:14.283Z,98676.09
2022-09-14T12:12:45.842Z,98671.72
2022-09-14T12:15:27.816Z,98670.94
2022-09-14T12:18:06.847Z,98672.19
2022-09-14T12:21:03.926Z,98665.25
2022-09-14T12:23:39.981Z,98664.56
2022-09-14T12:26:07.081Z,98670.13
2022-09-14T12:28:39.992Z,98667.88
2022-09-14T12:31:12.383Z,98663.22
2022-09-14T12:33:39.419Z,98660.09
2022-09-14T12:36:21.534Z,98658.53
2022-09-14T12:38:52.467Z,98645.69
2022-09-14T12:41:19.604Z,98653.63
2022-09-14T12:43:47.691Z,98649.31
2022-09-14T12:46:20.716Z,98647.56
2022-09-14T12:48:48.193Z,98639.06
2022-09-14T12:51:27.271Z,98633.78
2022-09-14T12:54:09.481Z,98638.06
2022-09-14T12:56:45.508Z,98635.16
2022-09-14T12:59:36.810Z,98643.25
2022-09-14T13:02:41.388Z,98647.81
2022-09-14T13:05:16.083Z,98645.53
2022-09-14T13:07:43.527Z,98642.72
2022-09-14T13:10:20.503Z,98649.78
2022-09-14T13:12:49.287Z,98647.88
2022-09-14T13:15:26.803Z,98649.72
2022-09-14T13:18:02.443Z,98638.22
2022-09-14T13:20:31.761Z,98646.78
2022-09-14T13:22:59.655Z,98637.38
2022-09-14T13:25:33.302Z,98644.38
2022-09-14T13:28:16.148Z,98646.31
2022-09-14T13:30:52.994Z,98644.50
2022-09-14T13:33:20.544Z,98644.50
2022-09-14T13:36:05.873Z,98645.78
2022-09-14T13:38:36.974Z,98633.66
2022-09-14T13:41:17.716Z,98640.25
2022-09-14T13:43:47.653Z,98633.81
2022-09-14T13:46:19.699Z,98632.16
2022-09-14T13:48:47.727Z,98626.44
2022-09-14T13:51:15.709Z,98629.97
2022-09-14T13:53:50.040Z,98633.94
2022-09-14T13:56:28.529Z,98628.91
2022-09-14T13:59:07.928Z,98623.50
2022-09-14T14:01:59.829Z,98621.09
2022-09-14T14:04:35.206Z,98623.44
2022-09-14T14:07:22.512Z,98617.41
2022-09-14T14:09:52.652Z,98624.44
2022-09-14T14:12:31.565Z,98622.00
2022-09-14T14:15:09.530Z,98620.44
2022-09-14T14:17:38.914Z,98619.19
2022-09-14T14:20:24.689Z,98612.72
2022-09-14T14:23:11.172Z,98610.63
2022-09-14T14:25:45.815Z,98611.88
2022-09-14T14:28:40.620Z,98614.72
2022-09-14T14:31:14.165Z,98610.88
2022-09-14T14:33:47.862Z,98615.31
2022-09-14T14:36:15.413Z,98610.63
2022-09-14T14:38:44.526Z,98606.94
2022-09-14T14:41:21.382Z,98608.06
2022-09-14T14:43:51.133Z,98600.41
2022-09-14T14:46:18.302Z,98607.22
2022-09-14T14:48:45.665Z,98603.94
2022-09-14T14:51:15.435Z,98615.44
2022-09-14T14:53:43.253Z,98594.50
2022-09-14T14:56:12.987Z,98597.13
2022-09-14T14:58:47.787Z,98585.69
2022-09-14T15:01:15.141Z,98592.84
2022-09-14T15:03:42.393Z,98596.59
2022-09-14T15:06:20.291Z,98589.22
2022-09-14T15:08:47.412Z,98602.50
2022-09-14T15:11:18.620Z,98574.69
2022-09-14T15:13:46.663Z,98568.19
2022-09-14T15:16:14.912Z,98578.28
2022-09-14T15:18:42.277Z,98573.63
2022-09-14T15:21:09.927Z,98572.84
2022-09-14T15:23:37.178Z,98566.22
2022-09-14T15:26:04.315Z,98570.53
2022-09-14T15:28:31.489Z,98562.75
2022-09-14T15:30:58.676Z,98566.19
2022-09-14T15:33:25.734Z,98567.81
2022-09-14T15:35:57.490Z,98568.16
2022-09-14T15:38:25.408Z,98579.00
2022-09-14T15:40:55.745Z,98587.31
2022-09-14T15:43:23.041Z,98590.59
2022-09-14T15:45:50.284Z,98574.13
2022-09-14T15:48:19.027Z,98573.50
2022-09-14T15:50:48.417Z,98592.50
2022-09-14T15:53:17.586Z,98580.94
2022-09-14T15:55:45.830Z,98572.00
2022-09-14T15:58:13.088Z,98582.66
2022-09-14T16:00:44.959Z,98572.00
2022-09-14T16:03:12.353Z,98567.44
2022-09-14T16:05:40.408Z,98580.16
2022-09-14T16:08:07.852Z,98588.47
2022-09-14T16:10:35.253Z,98589.41
2022-09-14T16:13:02.665Z,98569.38
2022-09-14T16:15:29.868Z,98569.94
2022-09-14T16:17:57.041Z,98597.59
2022-09-14T16:20:24.652Z,98578.47
2022-09-14T16:22:52.022Z,98583.63
2022-09-14T16:25:19.204Z,98591.00
2022-09-14T16:27:46.709Z,98596.66
2022-09-14T16:30:13.935Z,98589.84
2022-09-14T16:32:41.006Z,98592.19
2022-09-14T16:35:08.546Z,98585.94
2022-09-14T16:37:35.827Z,98590.59
2022-09-14T16:40:04.443Z,98579.47
2022-09-14T16:42:31.597Z,98589.03
2022-09-14T16:44:58.753Z,98598.81
2022-09-14T16:47:26.121Z,98588.00
2022-09-14T16:49:53.441Z,98576.31
2022-09-14T16:52:20.754Z,98579.34
2022-09-14T16:54:47.834Z,98567.03
2022-09-14T16:57:15.035Z,98569.41
2022-09-14T16:59:42.149Z,98571.69
2022-09-14T17:02:11.671Z,98577.72
2022-09-14T17:04:38.801Z,98572.88
2022-09-14T17:07:05.979Z,98580.97
2022-09-14T17:09:33.360Z,98580.44
2022-09-14T17:12:00.648Z,98586.72
2022-09-14T17:14:33.514Z,98581.09
2022-09-14T17:17:01.107Z,98592.31
2022-09-14T17:19:28.909Z,98591.97
2022-09-14T17:21:56.052Z,98590.53
2022-09-14T17:24:23.617Z,98586.38
2022-09-14T17:26:50.914Z,98592.00
2022-09-14T17:29:18.650Z,98609.88
2022-09-14T17:31:46.788Z,98603.34
2022-09-14T17:34:16.973Z,98610.53
2022-09-14T17:36:45.093Z,98614.34
2022-09-14T17:39:12.758Z,98615.53
2022-09-14T17:41:41.689Z,98615.41
2022-09-14T17:44:12.616Z,98620.13
2022-09-14T17:46:48.575Z,98620.50
2022-09-14T17:49:18.269Z,98629.44
2022-09-14T17:51:45.612Z,98624.81
2022-09-14T17:54:13.154Z,98619.81
2022-09-14T17:56:40.675Z,98625.63
2022-09-14T17:59:14.227Z,98635.72
2022-09-14T18:01:41.729Z,98611.78
2022-09-14T18:04:14.348Z,98615.28
2022-09-14T18:06:44.196Z,98620.09
2022-09-14T18:09:17.615Z,98619.44
2022-09-14T18:11:45.415Z,98623.66
2022-09-14T18:14:15.975Z,98633.75
2022-09-14T18:16:44.065Z,98613.22
2022-09-14T18:19:11.748Z,98612.56
2022-09-14T18:21:39.264Z,98610.22
2022-09-14T18:24:06.953Z,98614.31
2022-09-14T18:26:34.619Z,98610.66
2022-09-14T18:29:03.458Z,98611.91
2022-09-14T18:31:31.015Z,98610.72
2022-09-14T18:33:59.702Z,98613.00
2022-09-14T18:36:29.209Z,98613.50
2022-09-14T18:38:57.594Z,98621.09
2022-09-14T18:41:25.022Z,98608.16
2022-09-14T18:43:53.780Z,98618.25
2022-09-14T18:46:24.632Z,98630.34
2022-09-14T18:48:57.112Z,98628.41
2022-09-14T18:51:24.337Z,98620.88
2022-09-14T18:54:00.427Z,98639.84
2022-09-14T18:56:28.385Z,98637.38
2022-09-14T18:58:56.113Z,98633.84
2022-09-14T19:01:23.438Z,98641.19
2022-09-14T19:03:50.686Z,98632.88
2022-09-14T19:06:19.162Z,98641.41
2022-09-14T19:08:47.199Z,98633.84
2022-09-14T19:11:17.890Z,98645.38
2022-09-14T19:13:45.724Z,98644.25
2022-09-14T19:16:15.947Z,98643.63
2022-09-14T19:18:44.950Z,98652.13
2022-09-14T19:21:20.596Z,98652.25
2022-09-14T19:23:55.388Z,98658.16
2022-09-14T19:26:22.547Z,98654.03
2022-09-14T19:28:49.704Z,98656.72
2022-09-14T19:31:20.087Z,98660.22
2022-09-14T19:33:47.443Z,98657.47
2022-09-14T19:36:20.271Z,98663.97
2022-09-14T19:38:48.733Z,98665.00
2022-09-14T19:41:16.510Z,98668.84
2022-09-14T19:43:43.718Z,98670.38
2022-09-14T19:46:23.754Z,98665.91
2022-09-14T19:48:51.737Z,98679.06
2022-09-14T19:51:21.916Z,98681.41
2022-09-14T19:53:50.911Z,98684.59
2022-09-14T19:56:20.647Z,98693.56
2022-09-14T19:58:50.897Z,98692.19
2022-09-14T20:01:20.335Z,98700.16
2022-09-14T20:03:49.378Z,98704.75
2022-09-14T20:06:21.460Z,98711.06
2022-09-14T20:08:59.376Z,98716.59
2022-09-14T20:11:28.500Z,98718.75
2022-09-14T20:14:00.396Z,98719.59
2022-09-14T20:16:49.051Z,98728.63
2022-09-14T20:19:19.538Z,98733.31
2022-09-14T20:21:48.123Z,98734.88
2022-09-14T20:24:18.917Z,98736.03
2022-09-14T20:26:50.578Z,98741.13
2022-09-14T20:29:19.504Z,98746.97
2022-09-14T20:31:47.255Z,98745.19
2022-09-14T20:34:16.650Z,98745.91
2022-09-14T20:36:44.198Z,98748.91
2022-09-14T20:39:11.615Z,98753.38
2022-09-14T20:41:39.377Z,98757.06
2022-09-14T20:44:07.371Z,98764.41
2022-09-14T20:46:39.981Z,98770.03
2022-09-14T20:49:11.600Z,98773.88
2022-09-14T20:51:39.612Z,98788.56
2022-09-14T20:54:08.188Z,98790.03
2022-09-14T20:56:36.062Z,98786.88
2022-09-14T20:59:05.741Z,98794.97
2022-09-14T21:01:36.933Z,98796.00
2022-09-14T21:04:09.741Z,98793.38
2022-09-14T21:06:39.567Z,98793.69
2022-09-14T21:09:08.438Z,98788.13
2022-09-14T21:11:35.922Z,98792.78
2022-09-14T21:14:03.159Z,98793.31
2022-09-14T21:16:36.045Z,98801.06
2022-09-14T21:19:13.628Z,98808.66
2022-09-14T21:21:41.175Z,98803.28
2022-09-14T21:24:10.898Z,98798.16
2022-09-14T21:26:42.533Z,98795.69
2022-09-14T21:29:16.102Z,98801.81
2022-09-14T21:31:44.117Z,98803.75
2022-09-14T21:34:12.321Z,98799.38
2022-09-14T21:36:51.237Z,98802.69
2022-09-14T21:39:23.392Z,98813.00
2022-09-14T21:41:55.947Z,98814.72
2022-09-14T21:44:31.063Z,98815.97
2022-09-14T21:46:59.112Z,98828.69
2022-09-14T21:49:26.335Z,98818.94
2022-09-14T21:51:53.542Z,98822.00
2022-09-14T21:54:20.985Z,98821.56
2022-09-14T21:56:48.361Z,98823.72
2022-09-14T21:59:20.914Z,98818.84
2022-09-14T22:01:49.553Z,98829.81
2022-09-14T22:04:19.794Z,98827.13
2022-09-14T22:06:47.931Z,98823.97
2022-09-14T22:09:17.027Z,98828.41
2022-09-14T22:11:44.629Z,98822.00
2022-09-14T22:14:15.194Z,98831.78
2022-09-14T22:16:42.820Z,98830.06
2022-09-14T22:19:16.573Z,98834.66
2022-09-14T22:21:44.253Z,98832.69
2022-09-14T22:24:15.571Z,98832.41
2022-09-14T22:26:43.130Z,98826.97
2022-09-14T22:29:11.612Z,98828.91
2022-09-14T22:31:40.716Z,98836.97
2022-09-14T22:34:08.546Z,98835.28
2022-09-14T22:36:36.239Z,98840.47
2022-09-14T22:39:04.548Z,98838.28
2022-09-14T22:41:32.145Z,98838.28
2022-09-14T22:43:59.451Z,98837.53
2022-09-14T22:46:26.914Z,98842.22
2022-09-14T22:48:54.672Z,98842.94
2022-09-14T22:51:26.865Z,98839.81
2022-09-14T22:53:54.372Z,98840.22
2022-09-14T22:56:29.526Z,98844.41
2022-09-14T22:58:56.923Z,98851.97
2022-09-14T23:01:30.082Z,98848.75
2022-09-14T23:04:01.632Z,98850.66
2022-09-14T23:06:40.073Z,98843.53
2022-09-14T23:09:09.099Z,98841.59
2022-09-14T23:11:36.603Z,98838.91
2022-09-14T23:14:04.676Z,98837.16
2022-09-14T23:16:31.989Z,98835.66
2022-09-14T23:19:01.607Z,98830.03
2022-09-14T23:21:30.520Z,98834.91
2022-09-14T23:24:03.150Z,98831.47
2022-09-14T23:26:31.462Z,98822.69
2022-09-14T23:29:03.318Z,98825.38
2022-09-14T23:31:31.584Z,98830.03
2022-09-14T23:34:01.443Z,98831.25
2022-09-14T23:36:29.917Z,98827.84
2022-09-14T23:38:57.281Z,98825.38
2022-09-14T23:41:26.394Z,98821.53
2022-09-14T23:43:53.576Z,98811.75
2022-09-14T23:46:21.772Z,98807.38
2022-09-14T23:48:49.271Z,98806.22
2022-09-14T23:51:16.907Z,98806.72
2022-09-14T23:53:44.474Z,98816.34
2022-09-14T23:56:12.104Z,98808.31
2022-09-14T23:58:41.754Z,98805.63
